createdAt,value
2023-04-30T00:00:42.930Z,16.22
2023-04-30T00:03:10.269Z,16.41
2023-04-30T00:05:38.761Z,16.44
2023-04-30T00:08:08.397Z,16.42
2023-04-30T00:10:35.075Z,15.70
2023-04-30T00:13:12.772Z,16.29
2023-04-30T00:15:46.503Z,16.14
2023-04-30T00:18:13.138Z,16.14
2023-04-30T00:20:39.788Z,16.17
2023-04-30T00:23:09.874Z,15.96
2023-04-30T00:25:37.054Z,15.86
2023-04-30T00:28:09.779Z,16.05
2023-04-30T00:30:39.505Z,16.00
2023-04-30T00:33:08.999Z,15.59
2023-04-30T00:35:35.611Z,15.92
2023-04-30T00:38:03.413Z,15.92
2023-04-30T00:40:30.330Z,15.21
2023-04-30T00:42:57.568Z,15.87
2023-04-30T00:45:26.460Z,15.72
2023-04-30T00:47:54.581Z,15.65
2023-04-30T00:50:21.342Z,15.74
2023-04-30T00:52:48.119Z,15.79
2023-04-30T00:55:15.437Z,15.49
2023-04-30T00:57:53.363Z,15.52
2023-04-30T01:00:25.127Z,15.40
2023-04-30T01:02:54.422Z,15.62
2023-04-30T01:05:23.650Z,15.64
2023-04-30T01:08:00.724Z,15.30
2023-04-30T01:10:48.103Z,15.59
2023-04-30T01:13:30.930Z,15.52
2023-04-30T01:16:09.157Z,15.60
2023-04-30T01:19:09.064Z,15.46
2023-04-30T01:21:51.465Z,15.46
2023-04-30T01:24:38.664Z,15.54
2023-04-30T01:27:14.839Z,15.51
2023-04-30T01:29:43.836Z,15.52
2023-04-30T01:32:13.889Z,15.39
2023-04-30T01:34:50.618Z,15.48
2023-04-30T01:37:32.439Z,14.23
2023-04-30T01:40:19.782Z,15.54
2023-04-30T01:43:09.310Z,15.65
2023-04-30T01:46:28.173Z,15.23
2023-04-30T01:49:09.896Z,15.38
2023-04-30T01:51:47.092Z,15.17
2023-04-30T01:54:59.473Z,15.22
2023-04-30T01:57:32.043Z,15.46
2023-04-30T02:00:00.232Z,14.69
2023-04-30T02:02:26.922Z,14.77
2023-04-30T02:04:53.637Z,15.20
2023-04-30T02:07:46.323Z,15.34
2023-04-30T02:10:13.686Z,15.31
2023-04-30T02:12:43.090Z,15.10
2023-04-30T02:15:10.487Z,15.25
2023-04-30T02:17:37.167Z,14.96
2023-04-30T02:20:04.634Z,14.87
2023-04-30T02:22:31.775Z,14.44
2023-04-30T02:24:58.391Z,15.01
2023-04-30T02:27:30.957Z,15.09
2023-04-30T02:29:58.099Z,15.06
2023-04-30T02:32:30.639Z,14.77
2023-04-30T02:35:04.126Z,15.06
2023-04-30T02:37:31.357Z,15.16
2023-04-30T02:39:58.164Z,15.13
2023-04-30T02:42:33.412Z,15.04
2023-04-30T02:45:01.410Z,14.39
2023-04-30T02:47:37.221Z,15.00
2023-04-30T02:50:04.098Z,14.72
2023-04-30T02:52:34.819Z,14.96
2023-04-30T02:55:11.411Z,15.12
2023-04-30T02:57:44.931Z,15.11
2023-04-30T03:00:17.706Z,15.07
2023-04-30T03:02:47.239Z,15.13
2023-04-30T03:05:21.090Z,15.03
2023-04-30T03:07:47.841Z,14.84
2023-04-30T03:10:14.536Z,15.16
2023-04-30T03:12:41.298Z,14.44
2023-04-30T03:15:09.257Z,15.11
2023-04-30T03:17:36.161Z,15.25
2023-04-30T03:20:08.909Z,15.28
2023-04-30T03:22:40.500Z,15.30
2023-04-30T03:25:07.589Z,15.37
2023-04-30T03:27:34.315Z,14.57
2023-04-30T03:30:02.429Z,15.23
2023-04-30T03:32:29.398Z,15.34
2023-04-30T03:34:56.566Z,15.33
2023-04-30T03:37:28.099Z,15.25
2023-04-30T03:40:08.987Z,15.03
2023-04-30T03:42:40.922Z,14.81
2023-04-30T03:45:16.579Z,15.09
2023-04-30T03:47:43.555Z,15.12
2023-04-30T03:50:10.983Z,14.77
2023-04-30T03:52:37.949Z,15.26
2023-04-30T03:55:05.374Z,15.26
2023-04-30T03:57:32.963Z,15.43
2023-04-30T04:00:00.532Z,15.43
2023-04-30T04:02:28.510Z,15.23
2023-04-30T04:04:55.204Z,15.28
2023-04-30T04:07:21.798Z,15.34
2023-04-30T04:09:49.000Z,15.45
2023-04-30T04:12:15.767Z,15.26
2023-04-30T04:14:42.390Z,15.36
2023-04-30T04:17:09.035Z,15.36
2023-04-30T04:19:35.676Z,15.39
2023-04-30T04:22:04.963Z,15.14
2023-04-30T04:24:31.857Z,15.41
2023-04-30T04:26:58.511Z,15.47
2023-04-30T04:29:25.769Z,15.33
2023-04-30T04:31:52.414Z,15.15
2023-04-30T04:34:20.170Z,15.02
2023-04-30T04:36:49.879Z,14.56
2023-04-30T04:39:28.283Z,15.41
2023-04-30T04:41:55.317Z,15.31
2023-04-30T04:44:22.502Z,14.73
2023-04-30T04:46:54.067Z,15.48
2023-04-30T04:49:21.060Z,15.52
2023-04-30T04:51:47.980Z,15.50
2023-04-30T04:54:14.631Z,14.09
2023-04-30T04:56:41.441Z,14.30
2023-04-30T04:59:10.898Z,15.49
2023-04-30T05:01:40.520Z,15.54
2023-04-30T05:04:09.721Z,15.29
2023-04-30T05:06:36.864Z,15.57
2023-04-30T05:09:05.327Z,15.14
2023-04-30T05:11:32.141Z,15.54
2023-04-30T05:13:58.730Z,15.60
2023-04-30T05:16:27.941Z,15.29
2023-04-30T05:19:02.121Z,15.60
2023-04-30T05:21:32.259Z,15.72
2023-04-30T05:24:04.100Z,15.70
2023-04-30T05:26:32.232Z,15.98
2023-04-30T05:28:59.977Z,15.86
2023-04-30T05:31:26.617Z,15.94
2023-04-30T05:33:53.272Z,15.94
2023-04-30T05:36:21.353Z,15.13
2023-04-30T05:38:47.958Z,15.70
2023-04-30T05:41:14.567Z,15.79
2023-04-30T05:43:44.227Z,15.26
2023-04-30T05:46:10.832Z,15.93
2023-04-30T05:48:39.214Z,15.82
2023-04-30T05:51:06.747Z,15.95
2023-04-30T05:53:34.726Z,16.05
2023-04-30T05:56:13.445Z,15.76
2023-04-30T05:58:49.093Z,16.12
2023-04-30T06:01:15.761Z,16.01
2023-04-30T06:03:49.733Z,15.94
2023-04-30T06:06:18.870Z,16.30
2023-04-30T06:08:48.232Z,16.18
2023-04-30T06:11:15.458Z,16.22
2023-04-30T06:13:42.419Z,16.00
2023-04-30T06:16:09.208Z,16.22
2023-04-30T06:18:44.094Z,16.49
2023-04-30T06:21:17.768Z,16.53
2023-04-30T06:23:44.625Z,16.53
2023-04-30T06:26:14.614Z,16.82
2023-04-30T06:28:46.641Z,16.30
2023-04-30T06:31:13.705Z,16.78
2023-04-30T06:33:43.084Z,16.76
2023-04-30T06:36:09.811Z,16.58
2023-04-30T06:38:36.932Z,16.74
2023-04-30T06:41:03.613Z,16.82
2023-04-30T06:43:31.980Z,16.58
2023-04-30T06:46:01.458Z,16.73
2023-04-30T06:48:31.234Z,17.00
2023-04-30T06:50:59.896Z,16.91
2023-04-30T06:53:28.338Z,16.94
2023-04-30T06:55:56.703Z,16.90
2023-04-30T06:58:27.164Z,17.25
2023-04-30T07:00:54.256Z,16.75
2023-04-30T07:03:21.679Z,17.06
2023-04-30T07:05:48.389Z,17.06
2023-04-30T07:08:20.783Z,16.96
2023-04-30T07:10:53.710Z,17.15
2023-04-30T07:13:20.684Z,16.97
2023-04-30T07:15:50.611Z,16.92
2023-04-30T07:18:17.714Z,17.12
2023-04-30T07:20:48.940Z,17.14
2023-04-30T07:23:23.435Z,17.38
2023-04-30T07:25:50.117Z,17.34
2023-04-30T07:28:16.743Z,17.61
2023-04-30T07:30:43.305Z,17.70
2023-04-30T07:33:13.554Z,17.67
2023-04-30T07:35:40.133Z,17.79
2023-04-30T07:38:06.851Z,17.81
2023-04-30T07:40:36.378Z,17.63
2023-04-30T07:43:05.144Z,17.97
2023-04-30T07:45:32.235Z,17.90
2023-04-30T07:47:58.898Z,17.91
2023-04-30T07:50:25.725Z,17.96
2023-04-30T07:52:59.534Z,18.06
2023-04-30T07:55:26.332Z,17.96
2023-04-30T07:57:54.461Z,18.09
2023-04-30T08:00:21.168Z,17.93
2023-04-30T08:02:50.694Z,17.83
2023-04-30T08:05:22.486Z,17.90
2023-04-30T08:07:49.063Z,17.77
2023-04-30T08:10:15.714Z,18.24
2023-04-30T08:12:42.648Z,18.11
2023-04-30T08:15:09.380Z,18.11
2023-04-30T08:17:39.159Z,17.80
2023-04-30T08:20:08.217Z,17.54
2023-04-30T08:22:36.387Z,18.33
2023-04-30T08:25:03.527Z,18.40
2023-04-30T08:27:32.434Z,18.53
2023-04-30T08:29:59.082Z,18.52
2023-04-30T08:32:26.135Z,18.92
2023-04-30T08:34:54.502Z,18.67
2023-04-30T08:37:21.262Z,18.86
2023-04-30T08:39:47.892Z,18.78
2023-04-30T08:42:15.541Z,18.97
2023-04-30T08:44:46.721Z,19.13
2023-04-30T08:47:27.865Z,19.00
2023-04-30T08:49:56.516Z,19.31
2023-04-30T08:52:23.479Z,19.07
2023-04-30T08:54:52.324Z,19.29
2023-04-30T08:57:20.434Z,19.43
2023-04-30T08:59:47.612Z,19.51
2023-04-30T09:02:29.319Z,19.57
2023-04-30T09:04:59.165Z,19.60
2023-04-30T09:07:29.137Z,19.50
2023-04-30T09:10:00.838Z,19.80
2023-04-30T09:12:33.393Z,19.84
2023-04-30T09:15:05.345Z,19.31
2023-04-30T09:17:39.168Z,19.83
2023-04-30T09:20:13.436Z,19.94
2023-04-30T09:22:41.956Z,19.32
2023-04-30T09:25:11.853Z,19.63
2023-04-30T09:27:38.723Z,19.63
2023-04-30T09:30:09.304Z,20.02
2023-04-30T09:32:36.888Z,19.93
2023-04-30T09:35:04.323Z,20.06
2023-04-30T09:37:39.835Z,20.33
2023-04-30T09:40:10.506Z,20.15
2023-04-30T09:42:37.370Z,20.09
2023-04-30T09:45:05.389Z,20.17
2023-04-30T09:47:39.785Z,19.98
2023-04-30T09:50:06.999Z,20.16
2023-04-30T09:52:33.548Z,19.99
2023-04-30T09:55:06.013Z,20.00
2023-04-30T09:57:36.314Z,20.10
2023-04-30T10:00:03.952Z,20.25
2023-04-30T10:02:31.104Z,20.35
2023-04-30T10:04:58.778Z,20.08
2023-04-30T10:07:36.902Z,20.05
2023-04-30T10:10:08.459Z,20.02
2023-04-30T10:13:10.965Z,20.43
2023-04-30T10:15:43.295Z,20.32
2023-04-30T10:18:28.571Z,20.05
2023-04-30T10:20:57.169Z,19.41
2023-04-30T10:23:28.129Z,20.62
2023-04-30T10:25:57.636Z,20.64
2023-04-30T10:28:25.339Z,20.12
2023-04-30T10:30:55.395Z,20.74
2023-04-30T10:33:54.586Z,20.56
2023-04-30T10:37:07.308Z,21.02
2023-04-30T10:39:40.174Z,20.70
2023-04-30T10:42:10.203Z,20.71
2023-04-30T10:44:42.878Z,20.83
2023-04-30T10:47:13.914Z,20.33
2023-04-30T10:49:48.482Z,20.16
2023-04-30T10:52:34.829Z,20.67
2023-04-30T10:55:07.945Z,20.91
2023-04-30T10:57:43.437Z,20.82
2023-04-30T11:00:12.342Z,20.90
2023-04-30T11:02:50.099Z,21.03
2023-04-30T11:05:18.568Z,20.85
2023-04-30T11:07:57.266Z,20.91
2023-04-30T11:10:26.488Z,20.44
2023-04-30T11:12:56.926Z,20.84
2023-04-30T11:15:33.724Z,20.90
2023-04-30T11:18:01.025Z,20.83
2023-04-30T11:20:28.384Z,21.00
2023-04-30T11:23:21.834Z,20.67
2023-04-30T11:25:55.188Z,21.22
2023-04-30T11:28:28.944Z,21.26
2023-04-30T11:31:03.130Z,21.27
2023-04-30T11:33:32.080Z,20.94
2023-04-30T11:36:01.932Z,21.38
2023-04-30T11:38:34.464Z,21.35
2023-04-30T11:41:01.916Z,21.11
2023-04-30T11:43:31.169Z,20.85
2023-04-30T11:46:23.562Z,20.55
2023-04-30T11:48:54.439Z,21.07
2023-04-30T11:51:27.070Z,20.27
2023-04-30T11:53:54.083Z,20.90
2023-04-30T11:56:32.902Z,20.82
2023-04-30T11:58:59.809Z,21.03
2023-04-30T12:01:28.943Z,20.84
2023-04-30T12:04:00.880Z,20.60
2023-04-30T12:06:28.954Z,19.90
2023-04-30T12:09:09.295Z,21.42
2023-04-30T12:11:41.895Z,20.66
2023-04-30T12:14:17.838Z,20.40
2023-04-30T12:17:04.137Z,21.28
2023-04-30T12:19:31.641Z,20.92
2023-04-30T12:21:58.754Z,21.27
2023-04-30T12:24:27.818Z,20.70
2023-04-30T12:26:54.855Z,21.32
2023-04-30T12:29:28.550Z,21.53
2023-04-30T12:32:03.686Z,20.67
2023-04-30T12:34:32.937Z,21.42
2023-04-30T12:37:01.995Z,21.76
2023-04-30T12:39:38.837Z,21.80
2023-04-30T12:42:07.685Z,21.63
2023-04-30T12:44:47.730Z,21.86
2023-04-30T12:47:19.293Z,21.96
2023-04-30T12:49:47.036Z,20.90
2023-04-30T12:52:15.526Z,22.10
2023-04-30T12:54:42.346Z,22.00
2023-04-30T12:57:11.071Z,22.44
2023-04-30T12:59:59.011Z,22.38
2023-04-30T13:02:29.688Z,21.83
2023-04-30T13:04:57.168Z,21.17
2023-04-30T13:07:24.019Z,22.14
2023-04-30T13:09:50.860Z,22.01
2023-04-30T13:12:20.490Z,21.33
2023-04-30T13:14:48.439Z,21.79
2023-04-30T13:17:18.464Z,22.38
2023-04-30T13:19:46.125Z,22.43
2023-04-30T13:22:12.874Z,22.70
2023-04-30T13:24:39.759Z,22.62
2023-04-30T13:27:06.821Z,22.36
2023-04-30T13:29:36.212Z,22.29
2023-04-30T13:32:10.312Z,22.15
2023-04-30T13:34:37.044Z,21.97
2023-04-30T13:37:03.785Z,21.97
2023-04-30T13:39:30.584Z,21.97
2023-04-30T13:41:57.214Z,22.11
2023-04-30T13:44:24.993Z,22.08
2023-04-30T13:46:52.000Z,22.49
2023-04-30T13:49:18.691Z,22.36
2023-04-30T13:51:47.782Z,22.39
2023-04-30T13:54:14.422Z,22.45
2023-04-30T13:56:41.654Z,22.16
2023-04-30T13:59:08.427Z,22.39
2023-04-30T14:01:35.084Z,22.35
2023-04-30T14:04:02.633Z,22.27
2023-04-30T14:06:29.859Z,22.45
2023-04-30T14:08:56.639Z,22.03
2023-04-30T14:11:23.391Z,22.29
2023-04-30T14:13:50.154Z,22.37
2023-04-30T14:16:19.084Z,22.08
2023-04-30T14:18:45.694Z,22.35
2023-04-30T14:21:12.414Z,22.13
2023-04-30T14:23:39.620Z,22.17
2023-04-30T14:26:14.791Z,21.88
2023-04-30T14:28:42.142Z,21.75
2023-04-30T14:31:09.450Z,21.72
2023-04-30T14:33:36.233Z,21.49
2023-04-30T14:36:03.102Z,21.69
2023-04-30T14:38:41.079Z,21.73
2023-04-30T14:41:11.475Z,21.69
2023-04-30T14:43:38.584Z,21.74
2023-04-30T14:46:21.141Z,21.66
2023-04-30T14:48:51.592Z,21.75
2023-04-30T14:51:18.931Z,21.62
2023-04-30T14:53:50.107Z,21.67
2023-04-30T14:56:17.310Z,21.15
2023-04-30T14:58:44.312Z,21.85
2023-04-30T15:01:11.026Z,21.48
2023-04-30T15:03:39.618Z,21.57
2023-04-30T15:06:06.797Z,21.19
2023-04-30T15:08:33.545Z,20.72
2023-04-30T15:11:07.325Z,21.91
2023-04-30T15:13:37.170Z,22.01
2023-04-30T15:16:08.396Z,21.46
2023-04-30T15:18:36.236Z,22.03
2023-04-30T15:21:07.027Z,21.26
2023-04-30T15:23:33.919Z,21.74
2023-04-30T15:26:01.872Z,21.85
2023-04-30T15:28:28.490Z,21.62
2023-04-30T15:30:55.313Z,22.01
2023-04-30T15:33:29.121Z,21.85
2023-04-30T15:35:56.462Z,21.82
2023-04-30T15:38:23.151Z,21.64
2023-04-30T15:40:52.040Z,21.82
2023-04-30T15:43:21.042Z,21.63
2023-04-30T15:45:52.120Z,21.88
2023-04-30T15:48:19.096Z,20.89
2023-04-30T15:50:51.320Z,21.29
2023-04-30T15:53:17.945Z,21.76
2023-04-30T15:55:59.816Z,21.10
2023-04-30T15:58:26.440Z,21.79
2023-04-30T16:00:55.912Z,20.67
2023-04-30T16:03:22.773Z,21.48
2023-04-30T16:05:49.583Z,21.85
2023-04-30T16:08:16.505Z,21.80
2023-04-30T16:10:43.709Z,21.05
2023-04-30T16:13:10.297Z,21.47
2023-04-30T16:15:36.941Z,21.46
2023-04-30T16:18:03.621Z,21.50
2023-04-30T16:20:33.473Z,21.32
2023-04-30T16:23:07.709Z,21.62
2023-04-30T16:25:34.583Z,21.50
2023-04-30T16:28:09.718Z,21.62
2023-04-30T16:30:38.003Z,21.38
2023-04-30T16:33:04.790Z,21.61
2023-04-30T16:35:31.546Z,21.33
2023-04-30T16:37:58.413Z,20.90
2023-04-30T16:40:27.245Z,20.50
2023-04-30T16:42:56.838Z,21.13
2023-04-30T16:45:23.501Z,21.19
2023-04-30T16:47:50.137Z,21.18
2023-04-30T16:50:17.022Z,20.94
2023-04-30T16:52:47.709Z,20.96
2023-04-30T16:55:14.672Z,21.05
2023-04-30T16:57:41.549Z,20.90
2023-04-30T17:03:02.296Z,20.82
2023-04-30T17:05:32.047Z,21.00
2023-04-30T17:07:58.819Z,20.88
2023-04-30T17:10:26.668Z,20.60
2023-04-30T17:12:53.556Z,20.68
2023-04-30T17:15:30.938Z,20.76
2023-04-30T17:17:59.278Z,20.49
2023-04-30T17:20:31.373Z,20.69
2023-04-30T17:22:59.347Z,20.49
2023-04-30T17:25:32.080Z,20.38
2023-04-30T17:28:01.602Z,20.67
2023-04-30T17:30:29.261Z,20.68
2023-04-30T17:32:56.659Z,20.55
2023-04-30T17:35:23.545Z,20.28
2023-04-30T17:37:50.230Z,20.54
2023-04-30T17:40:21.578Z,20.47
2023-04-30T17:42:51.606Z,20.23
2023-04-30T17:45:19.262Z,20.35
2023-04-30T17:47:46.047Z,20.25
2023-04-30T17:50:15.707Z,20.03
2023-04-30T17:52:42.537Z,19.69
2023-04-30T17:55:09.832Z,19.77
2023-04-30T17:57:37.001Z,20.31
2023-04-30T18:00:05.307Z,20.02
2023-04-30T18:02:32.799Z,20.19
2023-04-30T18:05:05.430Z,20.02
2023-04-30T18:07:32.373Z,19.42
2023-04-30T18:09:59.762Z,19.98
2023-04-30T18:12:27.000Z,19.53
2023-04-30T18:14:53.620Z,19.45
2023-04-30T18:17:24.440Z,19.45
2023-04-30T18:19:51.180Z,19.78
2023-04-30T18:22:19.677Z,19.77
2023-04-30T18:24:46.347Z,19.65
2023-04-30T18:27:13.323Z,19.69
2023-04-30T18:29:40.105Z,18.45
2023-04-30T18:32:06.880Z,19.76
2023-04-30T18:34:37.555Z,19.63
2023-04-30T18:37:05.328Z,19.50
2023-04-30T18:39:31.970Z,19.67
2023-04-30T18:41:58.730Z,19.63
2023-04-30T18:44:31.802Z,19.51
2023-04-30T18:46:59.140Z,19.65
2023-04-30T18:49:28.445Z,19.50
2023-04-30T18:51:55.460Z,19.41
2023-04-30T18:54:27.578Z,19.49
2023-04-30T18:56:58.594Z,18.98
2023-04-30T18:59:29.156Z,19.17
2023-04-30T19:01:57.441Z,19.35
2023-04-30T19:04:24.267Z,19.08
2023-04-30T19:06:52.542Z,19.12
2023-04-30T19:09:19.859Z,19.40
2023-04-30T19:11:46.646Z,18.06
2023-04-30T19:14:13.756Z,19.17
2023-04-30T19:16:45.646Z,19.08
2023-04-30T19:19:13.183Z,19.29
2023-04-30T19:21:40.122Z,18.34
2023-04-30T19:24:08.419Z,18.13
2023-04-30T19:26:37.505Z,17.95
2023-04-30T19:29:06.945Z,18.24
2023-04-30T19:31:40.585Z,19.03
2023-04-30T19:34:17.504Z,19.00
2023-04-30T19:36:47.317Z,18.94
2023-04-30T19:39:15.746Z,18.67
2023-04-30T19:41:43.038Z,17.67
2023-04-30T19:44:10.362Z,18.49
2023-04-30T19:46:38.013Z,18.40
2023-04-30T19:49:05.413Z,19.02
2023-04-30T19:51:32.300Z,18.51
2023-04-30T19:54:04.178Z,18.69
2023-04-30T19:56:32.193Z,18.33
2023-04-30T19:58:59.890Z,18.54
2023-04-30T20:01:30.857Z,18.17
2023-04-30T20:04:02.160Z,17.47
2023-04-30T20:06:32.073Z,18.20
2023-04-30T20:09:16.357Z,18.50
2023-04-30T20:11:52.425Z,18.17
2023-04-30T20:14:19.967Z,17.70
2023-04-30T20:17:01.419Z,18.50
2023-04-30T20:19:28.950Z,18.51
2023-04-30T20:22:07.450Z,18.66
2023-04-30T20:24:41.081Z,17.84
2023-04-30T20:27:08.872Z,18.69
2023-04-30T20:29:43.047Z,17.92
2023-04-30T20:32:10.221Z,17.81
2023-04-30T20:34:37.459Z,18.68
2023-04-30T20:37:11.125Z,18.27
2023-04-30T20:39:49.155Z,18.53
2023-04-30T20:42:19.898Z,17.39
2023-04-30T20:44:49.507Z,17.24
2023-04-30T20:47:25.141Z,17.34
2023-04-30T20:49:58.040Z,18.09
2023-04-30T20:52:34.492Z,18.41
2023-04-30T20:55:08.962Z,18.45
2023-04-30T20:57:37.497Z,18.34
2023-04-30T21:00:08.323Z,18.39
2023-04-30T21:02:36.886Z,18.36
2023-04-30T21:05:05.549Z,18.04
2023-04-30T21:07:45.757Z,17.77
2023-04-30T21:10:20.459Z,18.31
2023-04-30T21:12:47.100Z,18.08
2023-04-30T21:15:13.757Z,18.01
2023-04-30T21:17:40.490Z,18.13
2023-04-30T21:20:13.079Z,17.69
2023-04-30T21:22:39.824Z,18.10
2023-04-30T21:25:07.484Z,17.87
2023-04-30T21:27:41.187Z,18.14
2023-04-30T21:30:08.797Z,18.07
2023-04-30T21:32:35.694Z,17.55
2023-04-30T21:35:02.375Z,16.97
2023-04-30T21:37:29.293Z,17.39
2023-04-30T21:40:01.235Z,17.33
2023-04-30T21:42:32.086Z,17.66
2023-04-30T21:44:59.846Z,17.69
2023-04-30T21:47:27.062Z,17.92
2023-04-30T21:50:00.157Z,17.84
2023-04-30T21:52:26.991Z,17.93
2023-04-30T21:55:00.312Z,18.06
2023-04-30T21:57:30.538Z,17.49
2023-04-30T21:59:59.669Z,17.66
2023-04-30T22:02:27.052Z,17.73
2023-04-30T22:04:56.596Z,17.54
2023-04-30T22:07:24.628Z,17.73
2023-04-30T22:09:55.100Z,17.64
2023-04-30T22:12:25.190Z,17.26
2023-04-30T22:14:55.696Z,17.46
2023-04-30T22:17:24.753Z,17.64
2023-04-30T22:19:51.751Z,17.42
2023-04-30T22:22:18.401Z,17.38
2023-04-30T22:24:45.199Z,17.28
2023-04-30T22:27:11.894Z,17.56
2023-04-30T22:29:41.289Z,17.27
2023-04-30T22:32:11.496Z,17.04
2023-04-30T22:34:41.039Z,17.06
2023-04-30T22:37:14.689Z,17.47
2023-04-30T22:39:57.470Z,17.62
2023-04-30T22:42:27.083Z,17.55
2023-04-30T22:44:58.502Z,17.21
2023-04-30T22:47:28.461Z,17.50
2023-04-30T22:49:56.473Z,17.66
2023-04-30T22:52:23.744Z,17.21
2023-04-30T22:54:50.411Z,17.47
2023-04-30T22:57:20.073Z,17.31
2023-04-30T22:59:49.388Z,17.44
2023-04-30T23:02:17.772Z,17.27
2023-04-30T23:04:44.522Z,16.71
2023-04-30T23:07:11.306Z,16.98
2023-04-30T23:09:43.337Z,17.47
2023-04-30T23:12:13.800Z,17.44
2023-04-30T23:14:40.379Z,17.42
2023-04-30T23:17:07.239Z,17.27
2023-04-30T23:19:34.272Z,17.40
2023-04-30T23:22:04.476Z,17.06
2023-04-30T23:24:39.332Z,17.26
2023-04-30T23:27:09.841Z,17.30
2023-04-30T23:29:41.020Z,17.19
2023-04-30T23:32:13.559Z,17.26
2023-04-30T23:34:42.619Z,17.08
2023-04-30T23:37:12.580Z,17.27
2023-04-30T23:39:41.990Z,17.22
2023-04-30T23:42:08.908Z,17.36
2023-04-30T23:44:41.316Z,17.34
2023-04-30T23:47:08.026Z,17.35
2023-04-30T23:49:39.476Z,17.25
2023-04-30T23:52:07.262Z,17.05
2023-04-30T23:54:39.286Z,17.20
2023-04-30T23:57:11.138Z,17.26
2023-04-30T23:59:37.830Z,16.97
